Terminal Aerodrome Forecast
Issued by NWS

Home | Current Version | Previous Version | Text Only | Print | Product List | Glossary On
Versions: 1 2 3 4 5 6 7 8 9 10 11 12 13 14
000
FTUS43 KICT 312334
TAFCNU
TAF
KCNU 312334Z 0100/0124 02006KT P6SM SKC
     FM010600 05006KT P6SM FEW250
     FM011300 09008KT P6SM FEW250
     FM011600 15011KT P6SM SCT250=

USA.gov is the U.S. government's official web portal to all federal, state and local government web resources and services.